sensor_id;sensor_type;location;lat;lon;timestamp;P1;durP1;ratioP1;P2;durP2;ratioP2
6336;SDS011;3201;49.962;11.618;2022-11-15T00:00:49;4.67;;;3.87;;
6336;SDS011;3201;49.962;11.618;2022-11-15T00:03:16;4.13;;;3.73;;
6336;SDS011;3201;49.962;11.618;2022-11-15T00:05:43;4.43;;;4.03;;
6336;SDS011;3201;49.962;11.618;2022-11-15T00:08:09;4.70;;;4.27;;
6336;SDS011;3201;49.962;11.618;2022-11-15T00:10:36;4.07;;;3.20;;
6336;SDS011;3201;49.962;11.618;2022-11-15T00:13:10;3.87;;;3.57;;
6336;SDS011;3201;49.962;11.618;2022-11-15T00:15:37;4.30;;;3.73;;
6336;SDS011;3201;49.962;11.618;2022-11-15T00:18:03;4.73;;;3.80;;
6336;SDS011;3201;49.962;11.618;2022-11-15T00:20:29;4.43;;;4.03;;
6336;SDS011;3201;49.962;11.618;2022-11-15T00:22:55;4.30;;;3.90;;
6336;SDS011;3201;49.962;11.618;2022-11-15T00:25:20;3.63;;;3.33;;
6336;SDS011;3201;49.962;11.618;2022-11-15T00:27:46;4.27;;;3.87;;
6336;SDS011;3201;49.962;11.618;2022-11-15T00:30:11;3.43;;;3.13;;
6336;SDS011;3201;49.962;11.618;2022-11-15T00:32:37;4.57;;;4.17;;
6336;SDS011;3201;49.962;11.618;2022-11-15T00:35:03;3.83;;;3.53;;
6336;SDS011;3201;49.962;11.618;2022-11-15T00:37:28;4.00;;;3.60;;
6336;SDS011;3201;49.962;11.618;2022-11-15T00:39:54;4.30;;;3.53;;
6336;SDS011;3201;49.962;11.618;2022-11-15T00:42:19;4.50;;;4.10;;
6336;SDS011;3201;49.962;11.618;2022-11-15T00:44:45;3.57;;;3.27;;
6336;SDS011;3201;49.962;11.618;2022-11-15T00:47:10;3.90;;;3.50;;
6336;SDS011;3201;49.962;11.618;2022-11-15T00:49:35;5.33;;;4.00;;
6336;SDS011;3201;49.962;11.618;2022-11-15T00:52:01;3.93;;;3.40;;
6336;SDS011;3201;49.962;11.618;2022-11-15T00:54:26;3.90;;;3.60;;
6336;SDS011;3201;49.962;11.618;2022-11-15T00:56:52;3.50;;;3.20;;
6336;SDS011;3201;49.962;11.618;2022-11-15T00:59:17;5.10;;;3.90;;
6336;SDS011;3201;49.962;11.618;2022-11-15T01:01:42;4.07;;;3.70;;
6336;SDS011;3201;49.962;11.618;2022-11-15T01:04:08;4.10;;;3.60;;
6336;SDS011;3201;49.962;11.618;2022-11-15T01:06:33;4.27;;;3.87;;
6336;SDS011;3201;49.962;11.618;2022-11-15T01:08:59;3.93;;;3.50;;
6336;SDS011;3201;49.962;11.618;2022-11-15T01:11:24;4.50;;;4.07;;
6336;SDS011;3201;49.962;11.618;2022-11-15T01:13:49;4.07;;;3.70;;
6336;SDS011;3201;49.962;11.618;2022-11-15T01:16:16;3.67;;;3.37;;
6336;SDS011;3201;49.962;11.618;2022-11-15T01:18:43;3.37;;;3.07;;
6336;SDS011;3201;49.962;11.618;2022-11-15T01:21:10;4.10;;;3.80;;
6336;SDS011;3201;49.962;11.618;2022-11-15T01:23:37;3.53;;;3.23;;
6336;SDS011;3201;49.962;11.618;2022-11-15T01:26:04;4.40;;;4.00;;
6336;SDS011;3201;49.962;11.618;2022-11-15T01:28:31;5.03;;;4.00;;
6336;SDS011;3201;49.962;11.618;2022-11-15T01:31:01;3.60;;;3.30;;
6336;SDS011;3201;49.962;11.618;2022-11-15T01:33:27;3.43;;;3.13;;
6336;SDS011;3201;49.962;11.618;2022-11-15T01:35:53;4.90;;;3.60;;
6336;SDS011;3201;49.962;11.618;2022-11-15T01:38:22;3.63;;;3.33;;
6336;SDS011;3201;49.962;11.618;2022-11-15T01:40:48;4.73;;;3.90;;
6336;SDS011;3201;49.962;11.618;2022-11-15T01:43:46;3.53;;;3.23;;
6336;SDS011;3201;49.962;11.618;2022-11-15T01:47:01;4.27;;;3.27;;
6336;SDS011;3201;49.962;11.618;2022-11-15T01:48:48;5.00;;;3.77;;
6336;SDS011;3201;49.962;11.618;2022-11-15T01:51:15;3.97;;;3.57;;
6336;SDS011;3201;49.962;11.618;2022-11-15T01:53:44;3.93;;;3.53;;
6336;SDS011;3201;49.962;11.618;2022-11-15T01:59:37;3.90;;;3.50;;
6336;SDS011;3201;49.962;11.618;2022-11-15T02:02:03;8.23;;;4.30;;
6336;SDS011;3201;49.962;11.618;2022-11-15T02:04:31;4.07;;;3.77;;
6336;SDS011;3201;49.962;11.618;2022-11-15T02:06:58;4.17;;;3.77;;
6336;SDS011;3201;49.962;11.618;2022-11-15T02:09:25;4.50;;;4.10;;
6336;SDS011;3201;49.962;11.618;2022-11-15T02:11:50;4.53;;;4.13;;
6336;SDS011;3201;49.962;11.618;2022-11-15T02:14:17;3.77;;;3.47;;
6336;SDS011;3201;49.962;11.618;2022-11-15T02:22:29;3.83;;;3.50;;
6336;SDS011;3201;49.962;11.618;2022-11-15T02:28:04;3.70;;;3.40;;
6336;SDS011;3201;49.962;11.618;2022-11-15T02:30:49;4.43;;;3.97;;
6336;SDS011;3201;49.962;11.618;2022-11-15T02:33:23;4.10;;;3.40;;
6336;SDS011;3201;49.962;11.618;2022-11-15T02:41:28;3.83;;;3.43;;
6336;SDS011;3201;49.962;11.618;2022-11-15T02:44:01;3.60;;;3.30;;
6336;SDS011;3201;49.962;11.618;2022-11-15T02:46:37;3.80;;;3.50;;
6336;SDS011;3201;49.962;11.618;2022-11-15T02:49:26;3.60;;;3.30;;
6336;SDS011;3201;49.962;11.618;2022-11-15T02:51:54;4.00;;;3.70;;
6336;SDS011;3201;49.962;11.618;2022-11-15T02:54:21;4.37;;;3.40;;
6336;SDS011;3201;49.962;11.618;2022-11-15T02:56:48;4.30;;;3.90;;
6336;SDS011;3201;49.962;11.618;2022-11-15T02:59:54;3.60;;;3.30;;
6336;SDS011;3201;49.962;11.618;2022-11-15T03:04:37;3.70;;;3.40;;
6336;SDS011;3201;49.962;11.618;2022-11-15T03:07:35;4.20;;;3.90;;
6336;SDS011;3201;49.962;11.618;2022-11-15T03:15:26;5.23;;;4.00;;
6336;SDS011;3201;49.962;11.618;2022-11-15T03:18:00;3.97;;;3.57;;
6336;SDS011;3201;49.962;11.618;2022-11-15T03:20:29;4.07;;;3.60;;
6336;SDS011;3201;49.962;11.618;2022-11-15T03:22:57;4.40;;;3.83;;
6336;SDS011;3201;49.962;11.618;2022-11-15T03:25:26;3.60;;;3.30;;
6336;SDS011;3201;49.962;11.618;2022-11-15T03:27:54;4.03;;;3.30;;
6336;SDS011;3201;49.962;11.618;2022-11-15T03:30:21;3.73;;;3.43;;
6336;SDS011;3201;49.962;11.618;2022-11-15T03:32:48;4.00;;;3.60;;
6336;SDS011;3201;49.962;11.618;2022-11-15T03:35:18;4.10;;;3.70;;
6336;SDS011;3201;49.962;11.618;2022-11-15T03:37:49;3.93;;;3.63;;
6336;SDS011;3201;49.962;11.618;2022-11-15T03:40:41;5.00;;;3.87;;
6336;SDS011;3201;49.962;11.618;2022-11-15T03:43:15;4.00;;;3.60;;
6336;SDS011;3201;49.962;11.618;2022-11-15T03:46:06;3.80;;;3.43;;
6336;SDS011;3201;49.962;11.618;2022-11-15T03:48:40;4.13;;;3.70;;
6336;SDS011;3201;49.962;11.618;2022-11-15T03:51:14;3.10;;;2.80;;
6336;SDS011;3201;49.962;11.618;2022-11-15T03:53:40;3.73;;;3.23;;
6336;SDS011;3201;49.962;11.618;2022-11-15T03:56:06;4.40;;;4.00;;
6336;SDS011;3201;49.962;11.618;2022-11-15T03:58:32;3.13;;;2.90;;
6336;SDS011;3201;49.962;11.618;2022-11-15T04:00:57;5.50;;;3.40;;
6336;SDS011;3201;49.962;11.618;2022-11-15T04:03:24;3.33;;;3.03;;
6336;SDS011;3201;49.962;11.618;2022-11-15T04:05:50;3.60;;;3.30;;
6336;SDS011;3201;49.962;11.618;2022-11-15T04:08:16;3.77;;;3.43;;
6336;SDS011;3201;49.962;11.618;2022-11-15T04:10:42;4.53;;;3.97;;
6336;SDS011;3201;49.962;11.618;2022-11-15T04:13:07;4.00;;;3.60;;
6336;SDS011;3201;49.962;11.618;2022-11-15T04:15:33;4.10;;;3.70;;
6336;SDS011;3201;49.962;11.618;2022-11-15T04:17:59;4.40;;;3.60;;
6336;SDS011;3201;49.962;11.618;2022-11-15T04:20:25;4.17;;;3.77;;
6336;SDS011;3201;49.962;11.618;2022-11-15T04:23:14;3.80;;;3.10;;
6336;SDS011;3201;49.962;11.618;2022-11-15T04:26:05;3.37;;;3.07;;
6336;SDS011;3201;49.962;11.618;2022-11-15T04:28:32;4.10;;;3.70;;
6336;SDS011;3201;49.962;11.618;2022-11-15T04:30:58;3.40;;;3.10;;
6336;SDS011;3201;49.962;11.618;2022-11-15T04:33:24;3.77;;;3.47;;
6336;SDS011;3201;49.962;11.618;2022-11-15T04:35:50;3.50;;;3.20;;
6336;SDS011;3201;49.962;11.618;2022-11-15T04:38:35;3.10;;;2.90;;
6336;SDS011;3201;49.962;11.618;2022-11-15T04:41:01;3.73;;;3.40;;
6336;SDS011;3201;49.962;11.618;2022-11-15T04:43:27;4.10;;;3.70;;
6336;SDS011;3201;49.962;11.618;2022-11-15T04:45:53;3.67;;;3.37;;
6336;SDS011;3201;49.962;11.618;2022-11-15T04:48:19;4.17;;;3.77;;
6336;SDS011;3201;49.962;11.618;2022-11-15T04:50:44;3.20;;;2.90;;
6336;SDS011;3201;49.962;11.618;2022-11-15T04:53:10;3.83;;;3.53;;
6336;SDS011;3201;49.962;11.618;2022-11-15T04:55:35;4.10;;;3.70;;
6336;SDS011;3201;49.962;11.618;2022-11-15T04:58:01;2.93;;;2.63;;
6336;SDS011;3201;49.962;11.618;2022-11-15T05:00:28;3.93;;;3.60;;
6336;SDS011;3201;49.962;11.618;2022-11-15T05:02:54;4.13;;;3.70;;
6336;SDS011;3201;49.962;11.618;2022-11-15T05:05:40;3.60;;;3.30;;
6336;SDS011;3201;49.962;11.618;2022-11-15T05:08:06;3.80;;;3.50;;
6336;SDS011;3201;49.962;11.618;2022-11-15T05:10:32;3.53;;;3.23;;
6336;SDS011;3201;49.962;11.618;2022-11-15T05:12:57;3.37;;;3.07;;
6336;SDS011;3201;49.962;11.618;2022-11-15T05:15:23;3.73;;;3.43;;
6336;SDS011;3201;49.962;11.618;2022-11-15T05:17:48;3.93;;;3.30;;
6336;SDS011;3201;49.962;11.618;2022-11-15T05:20:14;3.87;;;3.57;;
6336;SDS011;3201;49.962;11.618;2022-11-15T05:22:40;3.73;;;3.43;;
6336;SDS011;3201;49.962;11.618;2022-11-15T05:25:05;3.13;;;2.93;;
6336;SDS011;3201;49.962;11.618;2022-11-15T05:27:32;4.00;;;3.60;;
6336;SDS011;3201;49.962;11.618;2022-11-15T05:29:59;3.53;;;3.20;;
6336;SDS011;3201;49.962;11.618;2022-11-15T05:32:24;4.10;;;3.80;;
6336;SDS011;3201;49.962;11.618;2022-11-15T05:34:50;4.00;;;3.60;;
6336;SDS011;3201;49.962;11.618;2022-11-15T05:37:16;4.10;;;3.70;;
6336;SDS011;3201;49.962;11.618;2022-11-15T05:39:41;3.50;;;3.20;;
6336;SDS011;3201;49.962;11.618;2022-11-15T05:42:08;3.63;;;3.33;;
6336;SDS011;3201;49.962;11.618;2022-11-15T05:44:36;3.67;;;3.33;;
6336;SDS011;3201;49.962;11.618;2022-11-15T05:47:02;3.47;;;3.17;;
6336;SDS011;3201;49.962;11.618;2022-11-15T05:49:30;4.30;;;3.60;;
6336;SDS011;3201;49.962;11.618;2022-11-15T05:51:57;4.00;;;3.60;;
6336;SDS011;3201;49.962;11.618;2022-11-15T05:54:23;4.77;;;3.53;;
6336;SDS011;3201;49.962;11.618;2022-11-15T05:56:50;3.43;;;3.13;;
6336;SDS011;3201;49.962;11.618;2022-11-15T05:59:16;3.87;;;3.47;;
6336;SDS011;3201;49.962;11.618;2022-11-15T06:01:42;5.53;;;3.60;;
6336;SDS011;3201;49.962;11.618;2022-11-15T06:04:07;3.33;;;3.03;;
6336;SDS011;3201;49.962;11.618;2022-11-15T06:06:33;3.80;;;3.40;;
6336;SDS011;3201;49.962;11.618;2022-11-15T06:08:59;3.40;;;3.10;;
6336;SDS011;3201;49.962;11.618;2022-11-15T06:11:24;3.83;;;3.43;;
6336;SDS011;3201;49.962;11.618;2022-11-15T06:13:50;4.10;;;3.70;;
6336;SDS011;3201;49.962;11.618;2022-11-15T06:16:15;2.97;;;2.77;;
6336;SDS011;3201;49.962;11.618;2022-11-15T06:18:41;3.90;;;3.60;;
6336;SDS011;3201;49.962;11.618;2022-11-15T06:21:06;3.57;;;3.27;;
6336;SDS011;3201;49.962;11.618;2022-11-15T06:23:33;3.77;;;3.47;;
6336;SDS011;3201;49.962;11.618;2022-11-15T06:25:59;3.43;;;3.10;;
6336;SDS011;3201;49.962;11.618;2022-11-15T06:28:29;3.47;;;3.10;;
6336;SDS011;3201;49.962;11.618;2022-11-15T06:30:55;3.70;;;3.37;;
6336;SDS011;3201;49.962;11.618;2022-11-15T06:33:22;3.83;;;3.43;;
6336;SDS011;3201;49.962;11.618;2022-11-15T06:35:47;3.47;;;3.17;;
6336;SDS011;3201;49.962;11.618;2022-11-15T06:38:13;4.10;;;3.70;;
6336;SDS011;3201;49.962;11.618;2022-11-15T06:40:39;4.00;;;3.70;;
6336;SDS011;3201;49.962;11.618;2022-11-15T06:43:05;3.27;;;3.00;;
6336;SDS011;3201;49.962;11.618;2022-11-15T06:45:31;3.40;;;3.13;;
6336;SDS011;3201;49.962;11.618;2022-11-15T06:47:57;4.10;;;3.70;;
6336;SDS011;3201;49.962;11.618;2022-11-15T06:50:23;3.60;;;3.30;;
6336;SDS011;3201;49.962;11.618;2022-11-15T06:52:49;4.20;;;3.60;;
6336;SDS011;3201;49.962;11.618;2022-11-15T06:55:14;3.70;;;3.40;;
6336;SDS011;3201;49.962;11.618;2022-11-15T06:57:46;3.80;;;3.40;;
6336;SDS011;3201;49.962;11.618;2022-11-15T07:00:17;4.40;;;3.53;;
6336;SDS011;3201;49.962;11.618;2022-11-15T07:02:45;4.10;;;3.63;;
6336;SDS011;3201;49.962;11.618;2022-11-15T07:05:11;3.37;;;3.07;;
6336;SDS011;3201;49.962;11.618;2022-11-15T07:07:37;3.40;;;3.10;;
6336;SDS011;3201;49.962;11.618;2022-11-15T07:10:03;4.30;;;3.50;;
6336;SDS011;3201;49.962;11.618;2022-11-15T07:12:29;3.30;;;2.97;;
6336;SDS011;3201;49.962;11.618;2022-11-15T07:14:55;3.80;;;3.50;;
6336;SDS011;3201;49.962;11.618;2022-11-15T07:17:20;4.27;;;3.30;;
6336;SDS011;3201;49.962;11.618;2022-11-15T07:19:46;4.57;;;3.73;;
6336;SDS011;3201;49.962;11.618;2022-11-15T07:22:12;3.37;;;3.03;;
6336;SDS011;3201;49.962;11.618;2022-11-15T07:24:37;4.03;;;3.73;;
6336;SDS011;3201;49.962;11.618;2022-11-15T07:27:03;4.17;;;3.67;;
6336;SDS011;3201;49.962;11.618;2022-11-15T07:29:28;3.07;;;2.77;;
6336;SDS011;3201;49.962;11.618;2022-11-15T07:31:54;3.43;;;3.13;;
6336;SDS011;3201;49.962;11.618;2022-11-15T07:34:20;3.10;;;2.90;;
6336;SDS011;3201;49.962;11.618;2022-11-15T07:36:45;3.70;;;3.30;;
6336;SDS011;3201;49.962;11.618;2022-11-15T07:39:11;3.60;;;3.30;;
6336;SDS011;3201;49.962;11.618;2022-11-15T07:41:37;5.33;;;3.10;;
6336;SDS011;3201;49.962;11.618;2022-11-15T07:44:04;3.30;;;3.00;;
6336;SDS011;3201;49.962;11.618;2022-11-15T07:46:29;3.50;;;3.20;;
6336;SDS011;3201;49.962;11.618;2022-11-15T07:48:56;3.00;;;2.80;;
6336;SDS011;3201;49.962;11.618;2022-11-15T07:51:22;3.20;;;2.90;;
6336;SDS011;3201;49.962;11.618;2022-11-15T07:53:48;4.20;;;3.80;;
6336;SDS011;3201;49.962;11.618;2022-11-15T07:56:13;3.40;;;3.10;;
6336;SDS011;3201;49.962;11.618;2022-11-15T07:58:39;2.87;;;2.67;;
6336;SDS011;3201;49.962;11.618;2022-11-15T08:01:05;4.30;;;3.73;;
6336;SDS011;3201;49.962;11.618;2022-11-15T08:03:32;3.50;;;3.20;;
6336;SDS011;3201;49.962;11.618;2022-11-15T08:05:58;3.37;;;3.07;;
6336;SDS011;3201;49.962;11.618;2022-11-15T08:08:24;3.57;;;3.27;;
6336;SDS011;3201;49.962;11.618;2022-11-15T08:10:50;3.17;;;2.93;;
6336;SDS011;3201;49.962;11.618;2022-11-15T08:13:16;3.50;;;3.20;;
6336;SDS011;3201;49.962;11.618;2022-11-15T08:15:42;3.37;;;3.07;;
6336;SDS011;3201;49.962;11.618;2022-11-15T08:18:10;3.80;;;3.50;;
6336;SDS011;3201;49.962;11.618;2022-11-15T08:20:37;4.03;;;3.50;;
6336;SDS011;3201;49.962;11.618;2022-11-15T08:23:04;3.73;;;3.43;;
6336;SDS011;3201;49.962;11.618;2022-11-15T08:25:30;5.50;;;3.77;;
6336;SDS011;3201;49.962;11.618;2022-11-15T08:27:57;3.23;;;2.93;;
6336;SDS011;3201;49.962;11.618;2022-11-15T08:30:25;3.10;;;2.90;;
6336;SDS011;3201;49.962;11.618;2022-11-15T08:32:51;10.30;;;3.83;;
6336;SDS011;3201;49.962;11.618;2022-11-15T08:35:17;14.93;;;4.17;;
6336;SDS011;3201;49.962;11.618;2022-11-15T08:37:43;36.23;;;4.60;;
6336;SDS011;3201;49.962;11.618;2022-11-15T08:40:08;20.07;;;4.40;;
6336;SDS011;3201;49.962;11.618;2022-11-15T08:42:34;8.43;;;3.67;;
6336;SDS011;3201;49.962;11.618;2022-11-15T08:45:00;48.70;;;6.33;;
6336;SDS011;3201;49.962;11.618;2022-11-15T08:47:26;76.13;;;7.20;;
6336;SDS011;3201;49.962;11.618;2022-11-15T08:49:52;47.10;;;6.33;;
6336;SDS011;3201;49.962;11.618;2022-11-15T08:52:18;58.97;;;6.53;;
6336;SDS011;3201;49.962;11.618;2022-11-15T08:54:50;63.50;;;7.63;;
6336;SDS011;3201;49.962;11.618;2022-11-15T08:57:16;56.43;;;7.10;;
6336;SDS011;3201;49.962;11.618;2022-11-15T08:59:42;58.33;;;6.10;;
6336;SDS011;3201;49.962;11.618;2022-11-15T09:02:11;46.23;;;5.97;;
6336;SDS011;3201;49.962;11.618;2022-11-15T09:04:39;46.67;;;5.53;;
6336;SDS011;3201;49.962;11.618;2022-11-15T09:07:06;59.37;;;5.97;;
6336;SDS011;3201;49.962;11.618;2022-11-15T09:09:32;31.67;;;5.63;;
6336;SDS011;3201;49.962;11.618;2022-11-15T09:11:58;50.30;;;6.00;;
6336;SDS011;3201;49.962;11.618;2022-11-15T09:14:23;29.90;;;5.10;;
6336;SDS011;3201;49.962;11.618;2022-11-15T09:16:49;31.90;;;4.47;;
6336;SDS011;3201;49.962;11.618;2022-11-15T09:19:15;32.93;;;5.00;;
6336;SDS011;3201;49.962;11.618;2022-11-15T09:21:40;35.43;;;5.60;;
6336;SDS011;3201;49.962;11.618;2022-11-15T09:24:06;43.20;;;7.00;;
6336;SDS011;3201;49.962;11.618;2022-11-15T09:26:32;32.57;;;6.27;;
6336;SDS011;3201;49.962;11.618;2022-11-15T09:28:57;30.97;;;5.67;;
6336;SDS011;3201;49.962;11.618;2022-11-15T09:31:23;23.63;;;5.07;;
6336;SDS011;3201;49.962;11.618;2022-11-15T09:33:49;18.10;;;5.20;;
6336;SDS011;3201;49.962;11.618;2022-11-15T09:36:15;37.90;;;5.57;;
6336;SDS011;3201;49.962;11.618;2022-11-15T09:38:41;14.83;;;4.60;;
6336;SDS011;3201;49.962;11.618;2022-11-15T09:49:28;30.87;;;4.97;;
6336;SDS011;3201;49.962;11.618;2022-11-15T09:51:55;10.60;;;4.63;;
6336;SDS011;3201;49.962;11.618;2022-11-15T09:54:23;17.67;;;4.60;;
6336;SDS011;3201;49.962;11.618;2022-11-15T09:56:56;23.23;;;4.63;;
6336;SDS011;3201;49.962;11.618;2022-11-15T10:00:32;24.37;;;4.87;;
6336;SDS011;3201;49.962;11.618;2022-11-15T10:02:29;19.80;;;5.37;;
6336;SDS011;3201;49.962;11.618;2022-11-15T10:05:10;16.77;;;4.60;;
6336;SDS011;3201;49.962;11.618;2022-11-15T10:10:41;9.83;;;4.10;;
6336;SDS011;3201;49.962;11.618;2022-11-15T10:13:12;11.00;;;4.53;;
6336;SDS011;3201;49.962;11.618;2022-11-15T10:15:42;18.47;;;4.40;;
6336;SDS011;3201;49.962;11.618;2022-11-15T10:18:18;20.23;;;5.07;;
6336;SDS011;3201;49.962;11.618;2022-11-15T10:20:56;11.57;;;5.20;;
6336;SDS011;3201;49.962;11.618;2022-11-15T10:23:23;9.23;;;5.00;;
6336;SDS011;3201;49.962;11.618;2022-11-15T10:25:51;8.37;;;3.90;;
6336;SDS011;3201;49.962;11.618;2022-11-15T10:28:22;10.70;;;5.40;;
6336;SDS011;3201;49.962;11.618;2022-11-15T10:30:53;23.60;;;4.40;;
6336;SDS011;3201;49.962;11.618;2022-11-15T10:36:27;10.33;;;4.00;;
6336;SDS011;3201;49.962;11.618;2022-11-15T10:44:47;12.33;;;4.10;;
6336;SDS011;3201;49.962;11.618;2022-11-15T10:49:32;13.47;;;4.80;;
6336;SDS011;3201;49.962;11.618;2022-11-15T10:52:01;16.97;;;4.67;;
6336;SDS011;3201;49.962;11.618;2022-11-15T10:54:33;8.73;;;3.83;;
6336;SDS011;3201;49.962;11.618;2022-11-15T10:58:05;11.67;;;4.57;;
6336;SDS011;3201;49.962;11.618;2022-11-15T11:00:26;17.10;;;4.70;;
6336;SDS011;3201;49.962;11.618;2022-11-15T11:07:58;14.00;;;4.90;;
6336;SDS011;3201;49.962;11.618;2022-11-15T11:10:27;18.70;;;4.83;;
6336;SDS011;3201;49.962;11.618;2022-11-15T11:12:53;10.50;;;4.23;;
6336;SDS011;3201;49.962;11.618;2022-11-15T11:15:19;13.10;;;4.00;;
6336;SDS011;3201;49.962;11.618;2022-11-15T11:20:30;12.53;;;4.50;;
6336;SDS011;3201;49.962;11.618;2022-11-15T11:24:08;14.27;;;4.00;;
6336;SDS011;3201;49.962;11.618;2022-11-15T11:25:55;10.00;;;4.60;;
6336;SDS011;3201;49.962;11.618;2022-11-15T11:28:38;13.60;;;4.03;;
6336;SDS011;3201;49.962;11.618;2022-11-15T12:00:23;10.10;;;5.40;;
6336;SDS011;3201;49.962;11.618;2022-11-15T12:04:09;6.50;;;3.73;;
6336;SDS011;3201;49.962;11.618;2022-11-15T12:05:54;12.43;;;4.03;;
6336;SDS011;3201;49.962;11.618;2022-11-15T12:11:14;11.57;;;4.20;;
6336;SDS011;3201;49.962;11.618;2022-11-15T12:13:47;12.90;;;4.70;;
6336;SDS011;3201;49.962;11.618;2022-11-15T12:18:46;9.60;;;4.30;;
6336;SDS011;3201;49.962;11.618;2022-11-15T12:21:15;8.60;;;4.10;;
6336;SDS011;3201;49.962;11.618;2022-11-15T12:23:52;8.80;;;3.60;;
6336;SDS011;3201;49.962;11.618;2022-11-15T12:26:23;9.23;;;3.73;;
6336;SDS011;3201;49.962;11.618;2022-11-15T12:31:24;8.93;;;3.60;;
6336;SDS011;3201;49.962;11.618;2022-11-15T12:33:56;16.60;;;5.30;;
6336;SDS011;3201;49.962;11.618;2022-11-15T12:39:07;9.90;;;4.33;;
6336;SDS011;3201;49.962;11.618;2022-11-15T12:41:35;10.70;;;4.53;;
6336;SDS011;3201;49.962;11.618;2022-11-15T12:44:03;9.50;;;4.07;;
6336;SDS011;3201;49.962;11.618;2022-11-15T12:48:58;10.00;;;4.77;;
6336;SDS011;3201;49.962;11.618;2022-11-15T12:55:31;17.03;;;4.27;;
6336;SDS011;3201;49.962;11.618;2022-11-15T13:02:24;10.50;;;4.27;;
6336;SDS011;3201;49.962;11.618;2022-11-15T13:04:51;11.67;;;4.67;;
6336;SDS011;3201;49.962;11.618;2022-11-15T13:07:58;12.43;;;4.47;;
6336;SDS011;3201;49.962;11.618;2022-11-15T13:22:49;11.10;;;4.03;;
6336;SDS011;3201;49.962;11.618;2022-11-15T13:27:53;6.43;;;3.60;;
6336;SDS011;3201;49.962;11.618;2022-11-15T13:30:24;7.83;;;3.90;;
6336;SDS011;3201;49.962;11.618;2022-11-15T13:32:51;6.87;;;4.87;;
6336;SDS011;3201;49.962;11.618;2022-11-15T13:35:19;8.87;;;4.33;;
6336;SDS011;3201;49.962;11.618;2022-11-15T13:37:48;8.63;;;3.60;;
6336;SDS011;3201;49.962;11.618;2022-11-15T13:40:18;6.03;;;3.90;;
6336;SDS011;3201;49.962;11.618;2022-11-15T13:42:52;7.77;;;4.20;;
6336;SDS011;3201;49.962;11.618;2022-11-15T13:45:18;7.47;;;4.20;;
6336;SDS011;3201;49.962;11.618;2022-11-15T13:47:44;8.63;;;4.37;;
6336;SDS011;3201;49.962;11.618;2022-11-15T13:50:12;5.93;;;4.90;;
6336;SDS011;3201;49.962;11.618;2022-11-15T13:52:39;7.90;;;4.00;;
6336;SDS011;3201;49.962;11.618;2022-11-15T13:55:16;7.50;;;3.90;;
6336;SDS011;3201;49.962;11.618;2022-11-15T14:00:44;8.30;;;4.17;;
6336;SDS011;3201;49.962;11.618;2022-11-15T14:03:17;6.83;;;3.57;;
6336;SDS011;3201;49.962;11.618;2022-11-15T14:05:46;12.50;;;3.97;;
6336;SDS011;3201;49.962;11.618;2022-11-15T14:08:37;5.30;;;3.87;;
6336;SDS011;3201;49.962;11.618;2022-11-15T14:11:05;6.00;;;3.97;;
6336;SDS011;3201;49.962;11.618;2022-11-15T14:13:33;9.10;;;4.37;;
6336;SDS011;3201;49.962;11.618;2022-11-15T14:18:47;10.70;;;3.90;;
6336;SDS011;3201;49.962;11.618;2022-11-15T14:21:14;6.60;;;4.33;;
6336;SDS011;3201;49.962;11.618;2022-11-15T14:23:40;6.50;;;3.20;;
6336;SDS011;3201;49.962;11.618;2022-11-15T14:26:10;5.33;;;3.50;;
6336;SDS011;3201;49.962;11.618;2022-11-15T14:28:50;7.30;;;3.80;;
6336;SDS011;3201;49.962;11.618;2022-11-15T14:31:16;5.43;;;3.37;;
6336;SDS011;3201;49.962;11.618;2022-11-15T14:33:42;7.00;;;4.30;;
6336;SDS011;3201;49.962;11.618;2022-11-15T14:36:16;6.53;;;4.10;;
6336;SDS011;3201;49.962;11.618;2022-11-15T14:38:44;7.70;;;3.33;;
6336;SDS011;3201;49.962;11.618;2022-11-15T14:41:25;8.23;;;3.80;;
6336;SDS011;3201;49.962;11.618;2022-11-15T14:43:52;6.60;;;3.80;;
6336;SDS011;3201;49.962;11.618;2022-11-15T14:46:18;5.50;;;3.97;;
6336;SDS011;3201;49.962;11.618;2022-11-15T14:48:43;4.90;;;3.60;;
6336;SDS011;3201;49.962;11.618;2022-11-15T14:51:11;5.60;;;3.70;;
6336;SDS011;3201;49.962;11.618;2022-11-15T14:53:38;5.80;;;3.73;;
6336;SDS011;3201;49.962;11.618;2022-11-15T14:56:04;7.10;;;3.70;;
6336;SDS011;3201;49.962;11.618;2022-11-15T14:58:29;5.20;;;3.40;;
6336;SDS011;3201;49.962;11.618;2022-11-15T15:00:55;8.50;;;5.00;;
6336;SDS011;3201;49.962;11.618;2022-11-15T15:03:20;6.40;;;3.70;;
6336;SDS011;3201;49.962;11.618;2022-11-15T15:05:46;8.10;;;3.63;;
6336;SDS011;3201;49.962;11.618;2022-11-15T15:08:12;4.40;;;4.00;;
6336;SDS011;3201;49.962;11.618;2022-11-15T15:10:38;5.27;;;4.03;;
6336;SDS011;3201;49.962;11.618;2022-11-15T15:13:08;8.83;;;3.67;;
6336;SDS011;3201;49.962;11.618;2022-11-15T15:15:40;6.40;;;4.00;;
6336;SDS011;3201;49.962;11.618;2022-11-15T15:18:05;8.80;;;4.60;;
6336;SDS011;3201;49.962;11.618;2022-11-15T15:20:34;5.83;;;4.27;;
6336;SDS011;3201;49.962;11.618;2022-11-15T15:23:00;4.83;;;3.40;;
6336;SDS011;3201;49.962;11.618;2022-11-15T15:25:30;6.63;;;4.00;;
6336;SDS011;3201;49.962;11.618;2022-11-15T15:27:58;10.77;;;4.27;;
6336;SDS011;3201;49.962;11.618;2022-11-15T15:30:26;7.97;;;3.80;;
6336;SDS011;3201;49.962;11.618;2022-11-15T15:32:52;4.43;;;3.20;;
6336;SDS011;3201;49.962;11.618;2022-11-15T15:35:19;4.67;;;3.37;;
6336;SDS011;3201;49.962;11.618;2022-11-15T15:37:46;5.13;;;3.43;;
6336;SDS011;3201;49.962;11.618;2022-11-15T15:40:15;4.63;;;3.73;;
6336;SDS011;3201;49.962;11.618;2022-11-15T15:42:45;7.10;;;3.83;;
6336;SDS011;3201;49.962;11.618;2022-11-15T15:45:11;5.47;;;3.63;;
6336;SDS011;3201;49.962;11.618;2022-11-15T15:47:38;7.57;;;4.33;;
6336;SDS011;3201;49.962;11.618;2022-11-15T15:50:11;3.87;;;3.03;;
6336;SDS011;3201;49.962;11.618;2022-11-15T15:52:49;6.10;;;3.60;;
6336;SDS011;3201;49.962;11.618;2022-11-15T15:55:15;11.17;;;3.60;;
6336;SDS011;3201;49.962;11.618;2022-11-15T15:57:41;7.00;;;3.87;;
6336;SDS011;3201;49.962;11.618;2022-11-15T16:00:08;5.07;;;3.37;;
6336;SDS011;3201;49.962;11.618;2022-11-15T16:02:38;6.50;;;4.67;;
6336;SDS011;3201;49.962;11.618;2022-11-15T16:05:07;8.43;;;3.60;;
6336;SDS011;3201;49.962;11.618;2022-11-15T16:07:33;5.93;;;3.23;;
6336;SDS011;3201;49.962;11.618;2022-11-15T16:09:59;8.27;;;3.80;;
6336;SDS011;3201;49.962;11.618;2022-11-15T16:12:24;7.10;;;3.43;;
6336;SDS011;3201;49.962;11.618;2022-11-15T16:14:50;5.37;;;4.10;;
6336;SDS011;3201;49.962;11.618;2022-11-15T16:17:18;7.10;;;4.37;;
6336;SDS011;3201;49.962;11.618;2022-11-15T16:19:45;6.07;;;3.87;;
6336;SDS011;3201;49.962;11.618;2022-11-15T16:22:11;4.70;;;4.13;;
6336;SDS011;3201;49.962;11.618;2022-11-15T16:24:37;6.37;;;3.50;;
6336;SDS011;3201;49.962;11.618;2022-11-15T16:27:02;5.63;;;4.00;;
6336;SDS011;3201;49.962;11.618;2022-11-15T16:29:28;6.13;;;3.60;;
6336;SDS011;3201;49.962;11.618;2022-11-15T16:31:53;4.50;;;3.23;;
6336;SDS011;3201;49.962;11.618;2022-11-15T16:34:19;4.83;;;4.00;;
6336;SDS011;3201;49.962;11.618;2022-11-15T16:36:45;9.80;;;4.20;;
6336;SDS011;3201;49.962;11.618;2022-11-15T16:39:10;6.30;;;3.80;;
6336;SDS011;3201;49.962;11.618;2022-11-15T16:41:38;3.97;;;3.40;;
6336;SDS011;3201;49.962;11.618;2022-11-15T16:44:04;4.33;;;3.93;;
6336;SDS011;3201;49.962;11.618;2022-11-15T16:46:29;5.60;;;4.10;;
6336;SDS011;3201;49.962;11.618;2022-11-15T16:48:55;9.33;;;4.20;;
6336;SDS011;3201;49.962;11.618;2022-11-15T16:51:21;6.87;;;3.50;;
6336;SDS011;3201;49.962;11.618;2022-11-15T16:53:47;5.77;;;3.87;;
6336;SDS011;3201;49.962;11.618;2022-11-15T16:58:45;6.87;;;3.60;;
6336;SDS011;3201;49.962;11.618;2022-11-15T17:01:16;4.40;;;3.83;;
6336;SDS011;3201;49.962;11.618;2022-11-15T17:03:44;4.23;;;2.93;;
6336;SDS011;3201;49.962;11.618;2022-11-15T17:06:10;7.37;;;3.70;;
6336;SDS011;3201;49.962;11.618;2022-11-15T17:08:37;4.37;;;3.87;;
6336;SDS011;3201;49.962;11.618;2022-11-15T17:11:04;5.83;;;3.50;;
6336;SDS011;3201;49.962;11.618;2022-11-15T17:13:31;4.07;;;3.67;;
6336;SDS011;3201;49.962;11.618;2022-11-15T17:16:05;4.00;;;3.57;;